Time;durP1;ratioP1;P1;durP2;ratioP2;P2;SDS_P1;SDS_P2;PMS_P1;PMS_P2;Temp;Humidity;BMP_temperature;BMP_pressure;BME280_temperature;BME280_humidity;BME280_pressure;Samples;Min_cycle;Max_cycle;Signal;HPM_P1;HPM_P2
2023/07/08 00:01:30;;;;;;;5.32;3.20;;;;;;;18.59;100.00;101469.13;5228382;28;20115;-65
2023/07/08 00:04:03;;;;;;;5.45;2.95;;;;;;;18.63;100.00;101458.84;5231175;28;20022;-64
2023/07/08 00:06:35;;;;;;;6.67;3.53;;;;;;;18.52;100.00;101458.06;5226328;28;20076;-64
2023/07/08 00:09:13;;;;;;;5.57;3.65;;;;;;;18.63;100.00;101458.84;5216613;28;20030;-65
2023/07/08 00:11:45;;;;;;;5.80;3.40;;;;;;;18.50;100.00;101453.81;5230690;28;20048;-64
2023/07/08 00:14:16;;;;;;;5.97;3.45;;;;;;;18.49;100.00;101452.16;5217372;28;20053;-65
2023/07/08 00:16:49;;;;;;;7.45;3.20;;;;;;;18.40;100.00;101454.75;5219244;28;20030;-64
2023/07/08 00:19:24;;;;;;;6.68;3.90;;;;;;;18.49;100.00;101457.56;5225720;28;20029;-65
2023/07/08 00:21:55;;;;;;;7.13;3.20;;;;;;;18.37;100.00;101440.69;5219109;28;20026;-64
2023/07/08 00:24:27;;;;;;;5.70;3.80;;;;;;;18.41;100.00;101448.34;5226963;28;20527;-65
2023/07/08 00:26:58;;;;;;;6.45;3.55;;;;;;;18.32;100.00;101451.97;5235410;28;20129;-64
2023/07/08 00:29:29;;;;;;;5.45;3.83;;;;;;;18.31;100.00;101449.41;5217174;28;20685;-65
2023/07/08 00:32:01;;;;;;;7.35;3.70;;;;;;;18.16;100.00;101447.25;5221953;28;20523;-65
2023/07/08 00:34:32;;;;;;;5.20;3.58;;;;;;;18.13;100.00;101452.13;5221159;28;20086;-65
2023/07/08 00:37:05;;;;;;;5.90;3.85;;;;;;;18.03;100.00;101444.06;5222364;28;20029;-65
2023/07/08 00:39:36;;;;;;;7.30;3.85;;;;;;;18.06;100.00;101445.59;5216205;28;20032;-65
2023/07/08 00:42:15;;;;;;;6.55;3.47;;;;;;;17.96;100.00;101451.06;5229085;28;20463;-65
2023/07/08 00:44:48;;;;;;;10.95;3.95;;;;;;;17.89;100.00;101436.47;5228755;28;20022;-65
2023/07/08 00:47:19;;;;;;;7.05;3.80;;;;;;;17.96;100.00;101448.38;5232530;28;20395;-65
2023/07/08 00:50:03;;;;;;;7.65;3.92;;;;;;;17.88;100.00;101441.03;5224972;28;20029;-65
2023/07/08 00:52:35;;;;;;;5.82;4.00;;;;;;;17.90;100.00;101438.19;5238884;28;20034;-64
2023/07/08 00:55:08;;;;;;;6.82;3.63;;;;;;;17.84;100.00;101436.94;5242027;28;20025;-65
2023/07/08 00:57:43;;;;;;;5.93;3.40;;;;;;;17.82;100.00;101434.34;5228339;28;20033;-65
2023/07/08 01:00:16;;;;;;;5.57;3.92;;;;;;;17.79;100.00;101439.19;5236594;28;20075;-65
2023/07/08 01:02:54;;;;;;;6.55;3.95;;;;;;;17.83;100.00;101430.66;5228471;28;20529;-65
2023/07/08 01:05:28;;;;;;;6.22;4.25;;;;;;;17.79;100.00;101433.78;5225379;28;20029;-65
2023/07/08 01:08:03;;;;;;;7.70;4.60;;;;;;;17.74;100.00;101436.13;5227954;28;20049;-65
2023/07/08 01:10:49;;;;;;;7.10;4.20;;;;;;;17.68;100.00;101434.00;5229083;28;20061;-64
2023/07/08 01:13:24;;;;;;;7.80;4.60;;;;;;;17.53;100.00;101428.25;5224632;28;20040;-65
2023/07/08 01:15:56;;;;;;;9.07;4.28;;;;;;;17.57;100.00;101429.66;5219598;28;20033;-65
2023/07/08 01:18:28;;;;;;;6.93;4.38;;;;;;;17.53;100.00;101437.19;5219532;28;20029;-65
2023/07/08 01:21:28;;;;;;;6.78;4.30;;;;;;;17.50;100.00;101439.34;5218604;28;20026;-65
2023/07/08 01:24:02;;;;;;;6.25;4.32;;;;;;;17.35;100.00;101431.69;5220361;28;20460;-65
2023/07/08 01:26:35;;;;;;;;;;;;;;;17.65;100.00;101427.06;5218985;28;20029;-65
2023/07/08 01:29:09;;;;;;;5.18;3.90;;;;;;;17.36;100.00;101436.13;5219829;28;20248;-65
2023/07/08 01:31:48;;;;;;;7.88;4.35;;;;;;;17.37;100.00;101429.75;5227282;28;20372;-65
2023/07/08 01:34:19;;;;;;;9.63;4.18;;;;;;;17.47;100.00;101437.78;5224483;28;20116;-65
2023/07/08 01:36:55;;;;;;;5.35;3.80;;;;;;;17.29;100.00;101432.28;5219430;28;20052;-65
2023/07/08 01:39:28;;;;;;;7.70;4.28;;;;;;;17.34;100.00;101432.72;5224124;28;20354;-65
2023/07/08 01:42:00;;;;;;;6.63;4.20;;;;;;;17.39;100.00;101426.88;5222752;28;20059;-65
2023/07/08 01:44:36;;;;;;;6.03;4.20;;;;;;;17.48;100.00;101435.94;5237089;28;20467;-65
2023/07/08 01:47:20;;;;;;;6.53;4.40;;;;;;;17.26;100.00;101432.63;5227262;28;20026;-64
2023/07/08 01:49:51;;;;;;;7.18;4.47;;;;;;;17.33;100.00;101440.94;5233932;28;20504;-65
2023/07/08 01:52:23;;;;;;;8.13;4.00;;;;;;;17.20;100.00;101430.47;5233745;28;20033;-65
2023/07/08 01:54:55;;;;;;;6.03;4.13;;;;;;;17.14;100.00;101418.44;5240698;28;20471;-65
2023/07/08 01:57:26;;;;;;;6.30;4.20;;;;;;;17.16;100.00;101410.19;5236263;28;20024;-64
2023/07/08 01:59:58;;;;;;;7.50;4.70;;;;;;;17.13;100.00;101415.91;5225406;28;20495;-65
2023/07/08 02:02:29;;;;;;;6.63;4.10;;;;;;;17.22;100.00;101410.47;5228471;28;20094;-65
2023/07/08 02:05:01;;;;;;;7.60;4.13;;;;;;;17.10;100.00;101403.53;5232769;28;20207;-65
2023/07/08 02:07:32;;;;;;;5.75;4.13;;;;;;;17.03;100.00;101405.16;5235486;28;20056;-64
2023/07/08 02:10:05;;;;;;;7.85;4.50;;;;;;;16.90;100.00;101404.59;5230454;28;20040;-64
2023/07/08 02:12:36;;;;;;;7.68;3.80;;;;;;;16.93;100.00;101402.47;5227124;28;20032;-65
2023/07/08 02:15:09;;;;;;;6.72;4.13;;;;;;;16.92;100.00;101406.16;5231350;28;20034;-65
2023/07/08 02:17:40;;;;;;;5.60;4.03;;;;;;;16.99;100.00;101398.31;5227930;28;20159;-65
2023/07/08 02:20:12;;;;;;;5.57;4.00;;;;;;;16.88;100.00;101393.97;5231891;28;20021;-65
2023/07/08 02:22:43;;;;;;;5.70;4.18;;;;;;;16.89;100.00;101392.94;5230080;28;20518;-65
2023/07/08 02:25:15;;;;;;;6.45;4.03;;;;;;;16.88;100.00;101393.13;5230408;28;20498;-65
2023/07/08 02:27:47;;;;;;;7.28;4.15;;;;;;;16.81;100.00;101384.72;5231357;28;20030;-66
2023/07/08 02:30:18;;;;;;;7.63;4.70;;;;;;;16.81;100.00;101385.56;5225688;28;20071;-65
2023/07/08 02:32:56;;;;;;;7.82;4.82;;;;;;;16.84;100.00;101381.78;5231855;28;20100;-67
2023/07/08 02:35:30;;;;;;;12.18;4.50;;;;;;;16.72;100.00;101374.81;5228938;28;20040;-65
2023/07/08 02:38:03;;;;;;;7.32;4.72;;;;;;;16.76;100.00;101370.81;5217673;28;20083;-65
2023/07/08 02:40:34;;;;;;;8.70;4.70;;;;;;;16.69;100.00;101372.41;5228854;28;20075;-65
2023/07/08 02:43:05;;;;;;;8.75;5.22;;;;;;;16.71;100.00;101373.97;5228559;28;20479;-65
2023/07/08 02:45:37;;;;;;;12.30;5.38;;;;;;;16.67;100.00;101368.00;5221249;28;20564;-65
2023/07/08 02:48:08;;;;;;;8.48;4.90;;;;;;;16.64;100.00;101371.00;5237514;28;20053;-66
2023/07/08 02:50:40;;;;;;;8.48;5.30;;;;;;;16.75;100.00;101367.28;5226247;28;20095;-65
2023/07/08 02:53:12;;;;;;;10.27;4.43;;;;;;;16.58;100.00;101374.25;5233846;28;20067;-65
2023/07/08 02:55:43;;;;;;;8.52;4.90;;;;;;;16.53;100.00;101376.56;5225493;28;20038;-65
2023/07/08 02:58:14;;;;;;;7.38;4.97;;;;;;;16.60;100.00;101383.03;5229933;28;20033;-65
2023/07/08 03:00:54;;;;;;;9.05;5.00;;;;;;;16.55;100.00;101385.34;5232577;28;20057;-65
2023/07/08 03:03:29;;;;;;;8.98;5.07;;;;;;;16.43;100.00;101390.03;5232741;28;20037;-66
2023/07/08 03:06:03;;;;;;;9.45;4.75;;;;;;;16.42;100.00;101391.00;5223916;28;20080;-65
2023/07/08 03:08:34;;;;;;;8.90;5.00;;;;;;;16.57;100.00;101396.81;5227984;28;20046;-65
2023/07/08 03:11:07;;;;;;;8.10;5.10;;;;;;;16.42;100.00;101391.00;5230039;28;20446;-65
2023/07/08 03:13:39;;;;;;;10.80;5.38;;;;;;;16.38;100.00;101389.59;5225241;28;20025;-65
2023/07/08 03:16:13;;;;;;;7.95;5.28;;;;;;;16.32;100.00;101387.47;5230800;28;20037;-65
2023/07/08 03:18:47;;;;;;;9.48;5.32;;;;;;;16.38;100.00;101399.53;5221472;28;20048;-65
2023/07/08 03:21:19;;;;;;;9.38;5.35;;;;;;;16.30;100.00;101388.59;5225227;28;20108;-65
2023/07/08 03:23:51;;;;;;;9.43;5.35;;;;;;;16.28;100.00;101388.75;5222636;28;20036;-65
2023/07/08 03:26:24;;;;;;;9.15;5.35;;;;;;;16.20;100.00;101386.75;5229953;28;20030;-65
2023/07/08 03:28:56;;;;;;;8.45;4.93;;;;;;;16.26;100.00;101388.00;5230844;28;20029;-65
2023/07/08 03:31:27;;;;;;;10.43;5.47;;;;;;;16.27;100.00;101385.19;5224953;28;20040;-64
2023/07/08 03:33:59;;;;;;;7.97;5.13;;;;;;;16.23;100.00;101391.84;5221546;28;20057;-65
2023/07/08 03:36:30;;;;;;;8.57;5.35;;;;;;;16.19;100.00;101392.28;5228428;28;20098;-65
2023/07/08 03:39:02;;;;;;;7.18;5.43;;;;;;;16.15;100.00;101398.94;5240230;28;20025;-65
2023/07/08 03:41:33;;;;;;;6.38;5.30;;;;;;;16.18;100.00;101399.50;5238347;28;20029;-64
2023/07/08 03:44:04;;;;;;;6.28;4.90;;;;;;;16.08;100.00;101399.47;5225316;28;20027;-65
2023/07/08 03:46:36;;;;;;;6.53;5.30;;;;;;;16.12;100.00;101399.22;5229047;28;20749;-65
2023/07/08 03:49:09;;;;;;;7.13;4.93;;;;;;;16.15;100.00;101407.88;5227761;28;20415;-65
2023/07/08 03:51:41;;;;;;;8.95;4.70;;;;;;;16.12;100.00;101405.44;5226156;28;20031;-65
2023/07/08 03:54:14;;;;;;;7.78;4.90;;;;;;;16.15;100.00;101410.56;5235743;28;20033;-65
2023/07/08 03:56:45;;;;;;;6.70;4.60;;;;;;;16.13;100.00;101417.94;5229488;28;20030;-65
2023/07/08 03:59:18;;;;;;;5.95;4.57;;;;;;;16.18;100.00;101420.19;5229140;28;20099;-64
2023/07/08 04:01:50;;;;;;;8.30;5.30;;;;;;;16.21;100.00;101420.75;5238109;28;20491;-65
2023/07/08 04:04:21;;;;;;;9.45;5.25;;;;;;;16.17;100.00;101413.97;5231729;28;20037;-65
2023/07/08 04:06:54;;;;;;;8.60;5.40;;;;;;;16.19;100.00;101414.66;5227749;28;20052;-65
2023/07/08 04:09:26;;;;;;;10.18;5.22;;;;;;;16.17;100.00;101413.97;5229023;28;20681;-65
2023/07/08 04:11:58;;;;;;;6.65;5.00;;;;;;;16.16;100.00;101417.63;5232054;28;20090;-65
2023/07/08 04:14:29;;;;;;;7.93;5.30;;;;;;;16.13;100.00;101412.53;5220579;28;20026;-65
2023/07/08 04:17:01;;;;;;;7.40;5.13;;;;;;;16.07;100.00;101413.94;5223063;28;20022;-65
2023/07/08 04:19:32;;;;;;;6.38;4.97;;;;;;;16.10;100.00;101415.50;5221005;28;20476;-65
2023/07/08 04:22:05;;;;;;;8.20;4.97;;;;;;;16.10;100.00;101415.50;5220921;28;20029;-65
2023/07/08 04:24:37;;;;;;;7.15;4.85;;;;;;;16.14;100.00;101416.91;5220083;28;20387;-65
2023/07/08 04:27:16;;;;;;;7.22;5.20;;;;;;;16.21;100.00;101418.06;5222111;28;20037;-65
2023/07/08 04:29:48;;;;;;;7.30;5.20;;;;;;;16.34;100.00;101430.41;5219256;28;20058;-65
2023/07/08 04:32:19;;;;;;;7.60;5.63;;;;;;;16.36;100.00;101413.13;5219941;28;20028;-65
2023/07/08 04:34:52;;;;;;;9.18;5.05;;;;;;;16.29;100.00;101411.97;5222469;28;20025;-65
2023/07/08 04:37:23;;;;;;;6.15;4.63;;;;;;;16.37;100.00;101409.41;5221815;28;20037;-65
2023/07/08 04:39:55;;;;;;;9.50;5.05;;;;;;;16.31;100.00;101411.84;5225563;28;20518;-65
2023/07/08 04:42:28;;;;;;;7.25;5.78;;;;;;;16.35;100.00;101411.41;5219941;28;20052;-65
2023/07/08 04:45:00;;;;;;;7.78;5.53;;;;;;;16.36;100.00;101407.75;5222967;28;20102;-65
2023/07/08 04:47:33;;;;;;;6.50;5.63;;;;;;;16.49;100.00;101410.13;5226847;28;20038;-65
2023/07/08 04:50:05;;;;;;;7.28;5.78;;;;;;;16.40;100.00;101417.22;5225066;28;20034;-65
2023/07/08 04:52:37;;;;;;;7.32;5.70;;;;;;;16.46;100.00;101415.81;5233900;28;20022;-65
2023/07/08 04:55:09;;;;;;;7.20;5.13;;;;;;;16.42;100.00;101417.09;5232213;28;20484;-65
2023/07/08 04:57:41;;;;;;;7.57;5.65;;;;;;;16.45;100.00;101419.50;5227042;28;20391;-65
2023/07/08 05:00:16;;;;;;;7.40;5.28;;;;;;;16.41;100.00;101416.22;5229976;28;20026;-65
2023/07/08 05:02:48;;;;;;;8.80;5.53;;;;;;;16.52;100.00;101417.94;5227956;28;20033;-65
2023/07/08 05:05:20;;;;;;;7.93;5.93;;;;;;;16.61;100.00;101416.25;5226068;28;20044;-65
2023/07/08 05:07:51;;;;;;;7.57;5.55;;;;;;;16.51;100.00;101416.25;5224395;28;20473;-65
2023/07/08 05:10:23;;;;;;;8.05;5.57;;;;;;;16.54;100.00;101415.94;5231526;28;20041;-65
2023/07/08 05:12:54;;;;;;;8.20;5.60;;;;;;;16.64;100.00;101415.94;5229505;28;20087;-65
2023/07/08 05:15:26;;;;;;;7.03;5.60;;;;;;;16.71;100.00;101416.22;5228743;28;20507;-65
2023/07/08 05:17:57;;;;;;;7.78;5.53;;;;;;;16.67;100.00;101421.91;5231517;28;20025;-65
2023/07/08 05:20:30;;;;;;;8.13;5.20;;;;;;;16.75;100.00;101423.88;5225601;28;20092;-65
2023/07/08 05:23:02;;;;;;;8.73;5.40;;;;;;;16.80;100.00;101424.31;5228212;28;20372;-65
2023/07/08 05:25:35;;;;;;;8.10;5.07;;;;;;;16.70;100.00;101420.75;5227949;28;20044;-65
2023/07/08 05:28:06;;;;;;;8.90;5.70;;;;;;;16.74;100.00;101424.00;5238016;28;20033;-65
2023/07/08 05:30:40;;;;;;;6.35;5.03;;;;;;;16.87;100.00;101421.06;5234634;28;20036;-65
2023/07/08 05:33:11;;;;;;;7.25;4.75;;;;;;;16.96;100.00;101425.59;5227431;28;20115;-65
2023/07/08 05:35:45;;;;;;;7.63;5.43;;;;;;;17.01;100.00;101417.94;5228733;28;20507;-65
2023/07/08 05:38:17;;;;;;;7.90;5.22;;;;;;;17.14;100.00;101409.50;5233669;28;20172;-65
2023/07/08 05:40:55;;;;;;;9.00;4.85;;;;;;;17.05;100.00;101409.38;5226638;28;20037;-65
2023/07/08 05:43:27;;;;;;;7.75;5.07;;;;;;;17.07;100.00;101411.94;5222018;28;20060;-65
2023/07/08 05:46:02;;;;;;;9.35;5.97;;;;;;;17.17;100.00;101407.34;5227620;28;20029;-65
2023/07/08 05:48:33;;;;;;;8.30;5.30;;;;;;;17.20;100.00;101406.22;5223747;28;20032;-65
2023/07/08 05:51:05;;;;;;;8.15;4.75;;;;;;;17.23;100.00;101408.63;5226356;28;20459;-64
2023/07/08 05:53:36;;;;;;;6.93;4.85;;;;;;;17.23;100.00;101405.91;5224201;28;20039;-65
2023/07/08 05:56:08;;;;;;;7.13;4.68;;;;;;;17.31;100.00;101413.28;5227659;28;20040;-65
2023/07/08 05:58:39;;;;;;;6.80;5.28;;;;;;;17.29;100.00;101409.88;5224177;28;20025;-65
2023/07/08 06:01:10;;;;;;;9.75;4.78;;;;;;;17.44;100.00;101403.84;5223558;28;20373;-65
2023/07/08 06:03:42;;;;;;;9.55;4.88;;;;;;;17.49;100.00;101406.13;5224049;28;20045;-65
2023/07/08 06:06:13;;;;;;;7.10;5.22;;;;;;;17.66;100.00;101404.47;5221789;28;20135;-65
2023/07/08 06:08:45;;;;;;;8.57;5.30;;;;;;;17.51;100.00;101412.22;5223554;28;20052;-65
2023/07/08 06:11:16;;;;;;;8.55;5.63;;;;;;;17.65;100.00;101418.97;5226369;28;20074;-66
2023/07/08 06:13:48;;;;;;;9.93;6.03;;;;;;;17.71;100.00;101412.13;5223266;28;20040;-65
2023/07/08 06:16:19;;;;;;;8.25;5.28;;;;;;;17.77;100.00;101419.59;5227735;28;20104;-65
2023/07/08 06:18:51;;;;;;;7.80;5.50;;;;;;;17.79;100.00;101414.91;5224055;28;20044;-65
2023/07/08 06:21:23;;;;;;;8.68;5.60;;;;;;;17.85;100.00;101421.56;5228500;28;20032;-65
2023/07/08 06:23:55;;;;;;;10.35;5.53;;;;;;;18.00;100.00;101420.91;5227251;28;20450;-65
2023/07/08 06:26:26;;;;;;;8.18;5.57;;;;;;;18.12;100.00;101410.75;5227697;28;20036;-65
2023/07/08 06:28:58;;;;;;;6.38;5.30;;;;;;;18.18;100.00;101417.41;5224371;28;20029;-65
2023/07/08 06:31:29;;;;;;;7.88;5.38;;;;;;;18.40;100.00;101416.09;5226562;28;20117;-64
2023/07/08 06:34:01;;;;;;;9.20;5.60;;;;;;;18.38;100.00;101410.81;5219955;28;20422;-65
2023/07/08 06:36:33;;;;;;;7.25;5.05;;;;;;;18.48;100.00;101413.44;5222774;28;20386;-63
2023/07/08 06:39:07;;;;;;;8.30;5.82;;;;;;;18.76;100.00;101405.25;5233413;28;20029;-65
2023/07/08 06:41:38;;;;;;;8.27;5.30;;;;;;;18.69;100.00;101414.97;5221006;28;20037;-65
2023/07/08 06:44:10;;;;;;;8.65;5.25;;;;;;;18.94;100.00;101407.94;5219828;28;20080;-65
2023/07/08 06:46:41;;;;;;;10.23;5.55;;;;;;;18.88;100.00;101412.13;5226434;28;20021;-64
2023/07/08 06:49:13;;;;;;;9.85;5.07;;;;;;;19.12;100.00;101407.88;5216952;28;20036;-64
2023/07/08 06:51:45;;;;;;;7.38;4.57;;;;;;;19.35;100.00;101410.91;5225022;28;20573;-64
2023/07/08 06:54:16;;;;;;;8.07;4.60;;;;;;;19.40;100.00;101417.50;5222334;28;20053;-65
2023/07/08 06:56:47;;;;;;;8.43;5.20;;;;;;;19.61;100.00;101405.41;5224912;28;20048;-64
2023/07/08 06:59:19;;;;;;;8.32;5.22;;;;;;;19.78;100.00;101404.50;5226148;28;20116;-65
2023/07/08 07:01:50;;;;;;;8.48;4.90;;;;;;;19.74;100.00;101405.00;5221356;28;20485;-64
2023/07/08 07:04:22;;;;;;;9.77;5.35;;;;;;;19.93;100.00;101398.47;5228881;28;20033;-63
2023/07/08 07:06:53;;;;;;;6.93;4.93;;;;;;;20.06;100.00;101401.53;5219478;28;20145;-63
2023/07/08 07:09:24;;;;;;;7.70;4.70;;;;;;;20.42;100.00;101400.38;5227242;28;20022;-64
2023/07/08 07:11:56;;;;;;;8.57;4.32;;;;;;;20.39;100.00;101404.28;5228187;28;20025;-64
2023/07/08 07:14:27;;;;;;;9.30;5.13;;;;;;;20.49;100.00;101404.97;5227925;28;20025;-64
2023/07/08 07:16:59;;;;;;;9.65;5.13;;;;;;;20.73;100.00;101401.44;5220903;28;20853;-64
2023/07/08 07:19:31;;;;;;;8.00;5.00;;;;;;;20.82;100.00;101396.84;5232363;28;20467;-64
2023/07/08 07:22:02;;;;;;;9.52;5.30;;;;;;;20.87;100.00;101397.19;5231456;28;20091;-64
2023/07/08 07:24:34;;;;;;;8.38;5.57;;;;;;;21.25;100.00;101400.16;5227716;28;20036;-64
2023/07/08 07:27:05;;;;;;;7.75;4.60;;;;;;;21.19;100.00;101400.00;5239526;28;20090;-63
2023/07/08 07:29:55;;;;;;;8.25;4.95;;;;;;;21.52;100.00;101395.34;5221613;28;20489;-65
2023/07/08 07:32:27;;;;;;;10.13;5.40;;;;;;;21.48;100.00;101394.84;5231656;28;20025;-66
2023/07/08 07:34:59;;;;;;;9.10;4.65;;;;;;;21.51;100.00;101399.06;5222110;28;20037;-65
2023/07/08 07:37:31;;;;;;;8.82;4.63;;;;;;;21.88;100.00;101403.84;5233526;28;20045;-65
2023/07/08 07:40:03;;;;;;;9.20;4.63;;;;;;;21.91;100.00;101405.34;5222147;28;20029;-66
2023/07/08 07:42:34;;;;;;;7.32;4.63;;;;;;;22.18;100.00;101401.25;5226961;28;20021;-65
2023/07/08 07:45:06;;;;;;;8.70;5.07;;;;;;;22.19;100.00;101402.97;5228674;28;20095;-66
2023/07/08 07:47:38;;;;;;;9.07;5.32;;;;;;;22.27;100.00;101400.22;5225654;28;20459;-65
2023/07/08 07:50:10;;;;;;;8.05;5.30;;;;;;;22.44;100.00;101395.50;5235471;28;20140;-65
2023/07/08 07:52:41;;;;;;;6.97;4.93;;;;;;;22.59;100.00;101392.84;5239901;28;20025;-65
2023/07/08 07:55:13;;;;;;;8.70;5.20;;;;;;;22.59;100.00;101389.25;5234454;28;20455;-65
2023/07/08 07:57:47;;;;;;;8.55;5.70;;;;;;;22.65;100.00;101391.25;5227957;28;20068;-66
2023/07/08 08:00:19;;;;;;;8.57;4.95;;;;;;;22.92;100.00;101381.66;5221116;28;20030;-66
2023/07/08 08:02:50;;;;;;;8.80;4.97;;;;;;;23.33;100.00;101383.09;5225144;28;20500;-66
2023/07/08 08:05:23;;;;;;;8.38;5.20;;;;;;;23.34;100.00;101382.03;5226439;28;20025;-65
2023/07/08 08:07:54;;;;;;;7.18;4.97;;;;;;;23.24;100.00;101388.66;5229877;28;20038;-66
2023/07/08 08:10:25;;;;;;;8.27;4.68;;;;;;;23.49;100.00;101389.19;5228286;28;20082;-66
2023/07/08 08:12:57;;;;;;;9.90;5.47;;;;;;;23.81;100.00;101391.69;5228803;28;20167;-66
2023/07/08 08:15:28;;;;;;;10.18;5.32;;;;;;;23.72;100.00;101395.53;5237864;28;20087;-66
2023/07/08 08:18:00;;;;;;;8.48;5.15;;;;;;;23.95;100.00;101407.19;5242193;28;20064;-66
2023/07/08 08:20:31;;;;;;;9.52;5.25;;;;;;;23.98;100.00;101404.06;5226944;28;20032;-66
2023/07/08 08:23:03;;;;;;;12.60;5.65;;;;;;;24.06;100.00;101406.66;5225787;28;20053;-65
2023/07/08 08:25:34;;;;;;;10.75;5.07;;;;;;;24.20;100.00;101406.78;5230644;28;20063;-66
2023/07/08 08:28:05;;;;;;;8.65;5.32;;;;;;;24.30;100.00;101410.06;5225342;28;20029;-66
2023/07/08 08:30:37;;;;;;;8.80;5.18;;;;;;;24.55;100.00;101406.97;5221565;28;20029;-65
2023/07/08 08:33:09;;;;;;;9.43;5.45;;;;;;;24.63;100.00;101413.13;5237546;28;20029;-66
2023/07/08 08:35:42;;;;;;;7.30;5.22;;;;;;;24.55;100.00;101409.72;5244369;28;20029;-66
2023/07/08 08:38:14;;;;;;;12.43;5.70;;;;;;;24.97;100.00;101413.41;5228469;28;20033;-66
2023/07/08 08:40:45;;;;;;;8.38;5.68;;;;;;;24.94;100.00;101411.06;5239371;28;20049;-66
2023/07/08 08:43:27;;;;;;;7.60;5.40;;;;;;;25.03;100.00;101416.19;5236268;28;20111;-65
2023/07/08 08:46:05;;;;;;;9.50;5.43;;;;;;;25.29;100.00;101422.88;5233111;28;20091;-65
2023/07/08 08:48:49;;;;;;;7.60;6.07;;;;;;;25.28;100.00;101423.09;5238823;28;20036;-66
2023/07/08 08:51:20;;;;;;;8.90;6.00;;;;;;;25.23;100.00;101424.53;5230417;28;20108;-65
2023/07/08 08:53:56;;;;;;;10.02;6.30;;;;;;;25.33;100.00;101416.00;5230508;28;20418;-66
2023/07/08 08:56:34;;;;;;;9.80;5.90;;;;;;;25.80;100.00;101422.50;5227074;28;20028;-65
2023/07/08 08:59:41;;;;;;;8.82;5.70;;;;;;;25.71;100.00;101431.94;5220765;28;20112;-65
2023/07/08 09:02:51;;;;;;;9.90;6.10;;;;;;;25.91;100.00;101433.94;5232729;28;20507;-65
2023/07/08 09:05:22;;;;;;;8.27;6.20;;;;;;;25.75;100.00;101432.38;5235801;28;20436;-66
2023/07/08 09:08:18;;;;;;;8.27;6.10;;;;;;;25.95;100.00;101433.31;5228285;28;20072;-66
2023/07/08 09:10:57;;;;;;;9.05;6.13;;;;;;;25.93;100.00;101429.13;5235289;28;20044;-66
2023/07/08 09:13:37;;;;;;;11.13;6.10;;;;;;;26.16;100.00;101426.88;5225954;28;20090;-66
2023/07/08 09:16:33;;;;;;;11.70;6.60;;;;;;;26.67;100.00;101420.00;5236220;28;20147;-66
2023/07/08 09:19:22;;;;;;;9.38;6.00;;;;;;;26.85;100.00;101411.19;5228321;28;20018;-66
2023/07/08 09:22:03;;;;;;;9.60;6.18;;;;;;;26.69;100.00;101403.38;5229072;28;20047;-67
2023/07/08 09:24:50;;;;;;;8.15;6.47;;;;;;;26.83;100.00;101406.94;5229747;28;20041;-66
2023/07/08 09:27:22;;;;;;;8.68;5.70;;;;;;;26.97;100.00;101405.91;5223669;28;20029;-66
2023/07/08 09:29:53;;;;;;;10.13;6.15;;;;;;;27.06;100.00;101411.97;5233516;28;20066;-66
2023/07/08 09:32:27;;;;;;;8.85;6.30;;;;;;;27.16;100.00;101415.97;5228621;28;20025;-66
2023/07/08 09:35:06;;;;;;;9.93;6.45;;;;;;;27.09;100.00;101411.56;5230103;28;20132;-66
2023/07/08 09:37:38;;;;;;;9.68;6.13;;;;;;;27.22;100.00;101405.22;5227365;28;20029;-66
2023/07/08 09:40:15;;;;;;;9.02;6.55;;;;;;;27.17;100.00;101406.72;5228515;28;20028;-66
2023/07/08 09:42:51;;;;;;;8.13;6.20;;;;;;;27.41;100.00;101398.88;5229877;28;20486;-66
2023/07/08 09:45:24;;;;;;;11.68;6.45;;;;;;;27.81;94.55;101392.41;5229448;28;20113;-66
2023/07/08 09:47:58;;;;;;;10.88;6.47;;;;;;;27.76;96.42;101380.16;5229056;28;20111;-66
2023/07/08 09:50:31;;;;;;;;;;;;;;;28.05;100.00;101397.13;5229176;28;20025;-66
2023/07/08 09:53:04;;;;;;;11.13;6.10;;;;;;;28.00;93.48;101394.22;5218127;28;19967;-66
2023/07/08 09:55:36;;;;;;;10.82;6.93;;;;;;;28.14;100.00;101393.06;5223867;28;20699;-66
2023/07/08 09:58:13;;;;;;;10.02;6.50;;;;;;;28.62;97.02;101386.19;5220192;28;20037;-66
2023/07/08 10:00:52;;;;;;;9.35;6.25;;;;;;;28.60;97.61;101395.72;5225887;28;20025;-66
2023/07/08 10:03:28;;;;;;;9.63;6.32;;;;;;;28.45;96.99;101393.28;5228250;28;20025;-66
2023/07/08 10:06:05;;;;;;;12.30;6.25;;;;;;;28.61;100.00;101390.03;5231283;28;20033;-66
2023/07/08 10:08:41;;;;;;;9.50;6.15;;;;;;;28.69;94.83;101394.38;5232155;28;20045;-66
2023/07/08 10:11:29;;;;;;;11.85;6.75;;;;;;;28.85;96.21;101395.72;5232699;28;20087;-66
2023/07/08 10:14:11;;;;;;;9.45;6.30;;;;;;;29.03;92.95;101395.72;5222503;28;20853;-65
2023/07/08 10:16:43;;;;;;;8.57;6.35;;;;;;;28.99;90.35;101393.66;5227290;28;20384;-65
2023/07/08 10:19:17;;;;;;;9.68;6.05;;;;;;;29.16;89.43;101394.78;5229008;28;20021;-65
2023/07/08 10:21:52;;;;;;;8.55;6.55;;;;;;;28.97;91.04;101401.31;5228269;28;20036;-65
2023/07/08 10:24:42;;;;;;;10.57;6.25;;;;;;;29.13;88.41;101400.75;5225404;28;20033;-65
2023/07/08 10:27:41;;;;;;;10.35;6.38;;;;;;;29.07;95.36;101399.72;5229852;28;20036;-65
2023/07/08 10:30:25;;;;;;;9.77;6.50;;;;;;;29.32;94.30;101385.94;5230635;28;20037;-65
2023/07/08 10:33:35;;;;;;;10.48;7.07;;;;;;;29.37;95.78;101390.75;5233444;28;20025;-65
2023/07/08 10:36:18;;;;;;;10.73;6.85;;;;;;;29.47;91.74;101399.28;5229909;28;20032;-65
2023/07/08 10:39:28;;;;;;;8.02;5.75;;;;;;;29.57;92.22;101400.66;5225731;28;20064;-66
2023/07/08 10:42:33;;;;;;;8.35;5.68;;;;;;;29.67;88.35;101393.56;5233419;28;20048;-66
2023/07/08 10:45:11;;;;;;;9.23;5.95;;;;;;;29.71;89.13;101400.28;5224266;28;20200;-66
2023/07/08 10:48:11;;;;;;;10.35;6.30;;;;;;;29.66;90.11;101400.13;5227271;28;20033;-66
2023/07/08 10:50:51;;;;;;;9.48;6.55;;;;;;;29.82;91.88;101409.69;5222046;28;20072;-66
2023/07/08 10:53:46;;;;;;;8.75;5.85;;;;;;;29.93;90.39;101415.47;5228086;28;20123;-66
2023/07/08 10:56:27;;;;;;;10.10;6.22;;;;;;;29.91;87.48;101412.94;5225248;28;20029;-66
2023/07/08 10:59:01;;;;;;;6.93;5.40;;;;;;;29.96;75.16;101409.50;5223134;28;20108;-66
2023/07/08 11:01:35;;;;;;;8.77;5.65;;;;;;;29.90;77.61;101414.03;5221605;28;20075;-66
2023/07/08 11:04:13;;;;;;;10.00;6.18;;;;;;;30.20;76.17;101399.41;5220637;28;20029;-66
2023/07/08 11:07:08;;;;;;;9.85;6.15;;;;;;;30.22;81.13;101400.88;5221759;28;20037;-66
2023/07/08 11:10:04;;;;;;;8.27;5.82;;;;;;;30.45;77.28;101408.38;5234643;28;20029;-66
2023/07/08 11:12:59;;;;;;;9.32;6.15;;;;;;;30.29;80.85;101398.84;5224519;28;20228;-65
2023/07/08 11:15:58;;;;;;;11.15;6.53;;;;;;;30.41;78.39;101398.88;5223836;28;20183;-65
2023/07/08 11:18:41;;;;;;;8.68;6.20;;;;;;;30.64;73.91;101403.59;5226930;28;20037;-65
2023/07/08 11:21:18;;;;;;;10.80;6.27;;;;;;;30.58;75.92;101399.03;5227183;28;20042;-65
2023/07/08 11:24:00;;;;;;;10.02;5.97;;;;;;;30.54;79.14;101397.00;5225781;28;20076;-65
2023/07/08 11:26:49;;;;;;;8.80;6.13;;;;;;;30.65;70.06;101393.44;5232166;28;20030;-65
2023/07/08 11:29:25;;;;;;;9.10;6.22;;;;;;;30.61;63.28;101400.50;5229691;28;20037;-65
2023/07/08 11:31:58;;;;;;;10.80;6.25;;;;;;;30.66;66.63;101393.19;5226605;28;20108;-65
2023/07/08 11:34:30;;;;;;;10.57;6.05;;;;;;;30.77;70.70;101399.78;5226331;28;20119;-65
2023/07/08 11:37:03;;;;;;;9.88;6.60;;;;;;;30.68;75.24;101393.81;5228838;28;20056;-65
2023/07/08 11:39:45;;;;;;;9.40;6.10;;;;;;;30.72;76.63;101391.38;5221125;28;20026;-65
2023/07/08 11:42:21;;;;;;;12.63;6.72;;;;;;;30.70;74.85;101388.03;5216410;28;20029;-66
2023/07/08 11:44:56;;;;;;;7.88;5.82;;;;;;;30.70;71.84;101382.53;5225943;28;20148;-65
2023/07/08 11:48:13;;;;;;;10.95;6.90;;;;;;;30.84;74.93;101381.22;5232648;28;20086;-65
2023/07/08 11:50:46;;;;;;;8.52;6.35;;;;;;;31.01;74.18;101366.72;5208092;28;20103;-65
2023/07/08 11:53:30;;;;;;;7.63;6.05;;;;;;;30.95;76.84;101374.06;5235053;28;20122;-65